sensor_id;sensor_type;location;lat;lon;timestamp;temperature;humidity
80254;DHT22;69563;37.974;23.708;2023-05-07T00:00:43;23.40;39.80
80254;DHT22;69563;37.974;23.708;2023-05-07T00:03:09;23.40;39.80
80254;DHT22;69563;37.974;23.708;2023-05-07T00:05:34;23.40;39.80
80254;DHT22;69563;37.974;23.708;2023-05-07T00:08:00;23.40;39.90
80254;DHT22;69563;37.974;23.708;2023-05-07T00:10:26;23.40;39.90
80254;DHT22;69563;37.974;23.708;2023-05-07T00:12:52;23.40;39.80
80254;DHT22;69563;37.974;23.708;2023-05-07T00:15:17;23.40;39.90
80254;DHT22;69563;37.974;23.708;2023-05-07T00:17:43;23.40;39.90
80254;DHT22;69563;37.974;23.708;2023-05-07T00:20:09;23.40;39.90
80254;DHT22;69563;37.974;23.708;2023-05-07T00:22:35;23.40;39.90
80254;DHT22;69563;37.974;23.708;2023-05-07T00:25:01;23.40;39.90
80254;DHT22;69563;37.974;23.708;2023-05-07T00:27:26;23.40;39.90
80254;DHT22;69563;37.974;23.708;2023-05-07T00:29:52;23.40;39.90
80254;DHT22;69563;37.974;23.708;2023-05-07T00:32:18;23.40;39.90
80254;DHT22;69563;37.974;23.708;2023-05-07T00:34:43;23.40;39.90
80254;DHT22;69563;37.974;23.708;2023-05-07T00:37:10;23.40;39.90
80254;DHT22;69563;37.974;23.708;2023-05-07T00:39:37;23.40;39.90
80254;DHT22;69563;37.974;23.708;2023-05-07T00:42:03;23.40;39.90
80254;DHT22;69563;37.974;23.708;2023-05-07T00:44:29;23.40;39.90
80254;DHT22;69563;37.974;23.708;2023-05-07T00:46:58;23.40;39.90
80254;DHT22;69563;37.974;23.708;2023-05-07T00:49:42;23.40;39.90
80254;DHT22;69563;37.974;23.708;2023-05-07T00:52:11;23.40;39.90
80254;DHT22;69563;37.974;23.708;2023-05-07T00:54:38;23.40;40.00
80254;DHT22;69563;37.974;23.708;2023-05-07T00:57:06;23.40;40.00
80254;DHT22;69563;37.974;23.708;2023-05-07T00:59:32;23.40;40.00
80254;DHT22;69563;37.974;23.708;2023-05-07T01:01:58;23.40;40.00
80254;DHT22;69563;37.974;23.708;2023-05-07T01:04:24;23.40;40.00
80254;DHT22;69563;37.974;23.708;2023-05-07T01:06:50;23.40;40.00
80254;DHT22;69563;37.974;23.708;2023-05-07T01:09:17;23.40;40.10
80254;DHT22;69563;37.974;23.708;2023-05-07T01:11:43;23.40;40.00
80254;DHT22;69563;37.974;23.708;2023-05-07T01:14:10;23.40;40.00
80254;DHT22;69563;37.974;23.708;2023-05-07T01:16:36;23.40;40.10
80254;DHT22;69563;37.974;23.708;2023-05-07T01:19:03;23.40;40.00
80254;DHT22;69563;37.974;23.708;2023-05-07T01:21:32;23.40;40.00
80254;DHT22;69563;37.974;23.708;2023-05-07T01:23:59;23.40;40.10
80254;DHT22;69563;37.974;23.708;2023-05-07T01:26:25;23.40;40.00
80254;DHT22;69563;37.974;23.708;2023-05-07T01:28:51;23.40;40.00
80254;DHT22;69563;37.974;23.708;2023-05-07T01:31:17;23.40;40.00
80254;DHT22;69563;37.974;23.708;2023-05-07T01:33:44;23.40;40.00
80254;DHT22;69563;37.974;23.708;2023-05-07T01:36:12;23.40;40.00
80254;DHT22;69563;37.974;23.708;2023-05-07T01:38:39;23.40;40.00
80254;DHT22;69563;37.974;23.708;2023-05-07T01:41:06;23.40;40.10
80254;DHT22;69563;37.974;23.708;2023-05-07T01:43:32;23.40;40.00
80254;DHT22;69563;37.974;23.708;2023-05-07T01:45:59;23.40;40.10
80254;DHT22;69563;37.974;23.708;2023-05-07T01:48:26;23.40;40.00
80254;DHT22;69563;37.974;23.708;2023-05-07T01:50:52;23.40;40.10
80254;DHT22;69563;37.974;23.708;2023-05-07T01:53:17;23.40;40.10
80254;DHT22;69563;37.974;23.708;2023-05-07T01:55:43;23.30;40.00
80254;DHT22;69563;37.974;23.708;2023-05-07T01:58:09;23.40;40.10
80254;DHT22;69563;37.974;23.708;2023-05-07T02:00:41;23.40;40.10
80254;DHT22;69563;37.974;23.708;2023-05-07T02:03:07;23.40;40.00
80254;DHT22;69563;37.974;23.708;2023-05-07T02:05:33;23.40;40.10
80254;DHT22;69563;37.974;23.708;2023-05-07T02:08:00;23.40;40.10
80254;DHT22;69563;37.974;23.708;2023-05-07T02:10:25;23.40;40.10
80254;DHT22;69563;37.974;23.708;2023-05-07T02:12:51;23.40;40.10
80254;DHT22;69563;37.974;23.708;2023-05-07T02:15:17;23.40;40.10
80254;DHT22;69563;37.974;23.708;2023-05-07T02:20:25;23.40;40.10
80254;DHT22;69563;37.974;23.708;2023-05-07T02:22:51;23.30;40.10
80254;DHT22;69563;37.974;23.708;2023-05-07T02:25:19;23.40;40.10
80254;DHT22;69563;37.974;23.708;2023-05-07T02:27:45;23.40;40.20
80254;DHT22;69563;37.974;23.708;2023-05-07T02:30:11;23.40;40.20
80254;DHT22;69563;37.974;23.708;2023-05-07T02:32:38;23.40;40.20
80254;DHT22;69563;37.974;23.708;2023-05-07T02:35:04;23.40;40.20
80254;DHT22;69563;37.974;23.708;2023-05-07T02:37:30;23.40;40.20
80254;DHT22;69563;37.974;23.708;2023-05-07T02:39:55;23.40;40.30
80254;DHT22;69563;37.974;23.708;2023-05-07T02:42:21;23.40;40.30
80254;DHT22;69563;37.974;23.708;2023-05-07T02:44:47;23.40;40.30
80254;DHT22;69563;37.974;23.708;2023-05-07T02:47:14;23.40;40.30
80254;DHT22;69563;37.974;23.708;2023-05-07T02:49:40;23.40;40.30
80254;DHT22;69563;37.974;23.708;2023-05-07T02:52:06;23.30;40.20
80254;DHT22;69563;37.974;23.708;2023-05-07T02:54:32;23.30;40.20
80254;DHT22;69563;37.974;23.708;2023-05-07T02:56:57;23.30;40.30
80254;DHT22;69563;37.974;23.708;2023-05-07T02:59:26;23.40;40.30
80254;DHT22;69563;37.974;23.708;2023-05-07T03:01:52;23.30;40.30
80254;DHT22;69563;37.974;23.708;2023-05-07T03:04:18;23.30;40.20
80254;DHT22;69563;37.974;23.708;2023-05-07T03:06:43;23.30;40.20
80254;DHT22;69563;37.974;23.708;2023-05-07T03:09:09;23.40;40.30
80254;DHT22;69563;37.974;23.708;2023-05-07T03:11:35;23.30;40.30
80254;DHT22;69563;37.974;23.708;2023-05-07T03:14:03;23.30;40.30
80254;DHT22;69563;37.974;23.708;2023-05-07T03:16:29;23.30;40.30
80254;DHT22;69563;37.974;23.708;2023-05-07T03:18:55;23.30;40.30
80254;DHT22;69563;37.974;23.708;2023-05-07T03:21:21;23.30;40.20
80254;DHT22;69563;37.974;23.708;2023-05-07T03:23:46;23.30;40.20
80254;DHT22;69563;37.974;23.708;2023-05-07T03:26:13;23.30;40.30
80254;DHT22;69563;37.974;23.708;2023-05-07T03:28:39;23.30;40.20
80254;DHT22;69563;37.974;23.708;2023-05-07T03:31:05;23.40;40.30
80254;DHT22;69563;37.974;23.708;2023-05-07T03:33:33;23.30;40.30
80254;DHT22;69563;37.974;23.708;2023-05-07T03:36:01;23.30;40.20
80254;DHT22;69563;37.974;23.708;2023-05-07T03:38:27;23.30;40.20
80254;DHT22;69563;37.974;23.708;2023-05-07T03:40:52;23.30;40.20
80254;DHT22;69563;37.974;23.708;2023-05-07T03:43:18;23.30;40.20
80254;DHT22;69563;37.974;23.708;2023-05-07T03:45:47;23.40;40.30
80254;DHT22;69563;37.974;23.708;2023-05-07T03:48:13;23.40;40.30
80254;DHT22;69563;37.974;23.708;2023-05-07T03:50:38;23.40;40.20
80254;DHT22;69563;37.974;23.708;2023-05-07T03:53:04;23.40;40.20
80254;DHT22;69563;37.974;23.708;2023-05-07T03:55:32;23.40;40.20
80254;DHT22;69563;37.974;23.708;2023-05-07T03:57:58;23.40;40.20
80254;DHT22;69563;37.974;23.708;2023-05-07T04:00:23;23.40;40.10
80254;DHT22;69563;37.974;23.708;2023-05-07T04:02:49;23.40;40.10
80254;DHT22;69563;37.974;23.708;2023-05-07T04:05:15;23.40;40.10
80254;DHT22;69563;37.974;23.708;2023-05-07T04:07:42;23.40;40.00
80254;DHT22;69563;37.974;23.708;2023-05-07T04:10:08;23.40;40.00
80254;DHT22;69563;37.974;23.708;2023-05-07T04:12:35;23.40;40.00
80254;DHT22;69563;37.974;23.708;2023-05-07T04:15:01;23.50;40.00
80254;DHT22;69563;37.974;23.708;2023-05-07T04:17:27;23.50;40.00
80254;DHT22;69563;37.974;23.708;2023-05-07T04:19:52;23.50;39.80
80254;DHT22;69563;37.974;23.708;2023-05-07T04:22:18;23.60;39.80
80254;DHT22;69563;37.974;23.708;2023-05-07T04:24:44;23.60;39.70
80254;DHT22;69563;37.974;23.708;2023-05-07T04:27:11;23.70;39.60
80254;DHT22;69563;37.974;23.708;2023-05-07T04:29:37;23.70;39.50
80254;DHT22;69563;37.974;23.708;2023-05-07T04:32:04;23.70;39.40
80254;DHT22;69563;37.974;23.708;2023-05-07T04:34:29;23.80;39.30
80254;DHT22;69563;37.974;23.708;2023-05-07T04:36:58;23.80;39.30
80254;DHT22;69563;37.974;23.708;2023-05-07T04:39:24;23.90;39.20
80254;DHT22;69563;37.974;23.708;2023-05-07T04:41:50;23.90;39.10
80254;DHT22;69563;37.974;23.708;2023-05-07T04:44:16;23.90;39.00
80254;DHT22;69563;37.974;23.708;2023-05-07T04:46:42;24.00;39.00
80254;DHT22;69563;37.974;23.708;2023-05-07T04:49:08;24.10;39.00
80254;DHT22;69563;37.974;23.708;2023-05-07T04:51:35;24.10;38.90
80254;DHT22;69563;37.974;23.708;2023-05-07T04:54:01;24.10;38.80
80254;DHT22;69563;37.974;23.708;2023-05-07T04:56:28;24.20;38.80
80254;DHT22;69563;37.974;23.708;2023-05-07T04:58:58;24.20;38.60
80254;DHT22;69563;37.974;23.708;2023-05-07T05:01:25;24.30;38.60
80254;DHT22;69563;37.974;23.708;2023-05-07T05:03:50;24.30;38.40
80254;DHT22;69563;37.974;23.708;2023-05-07T05:06:16;24.40;38.40
80254;DHT22;69563;37.974;23.708;2023-05-07T05:08:42;24.50;38.30
80254;DHT22;69563;37.974;23.708;2023-05-07T05:11:08;24.50;38.30
80254;DHT22;69563;37.974;23.708;2023-05-07T05:13:36;24.50;38.20
80254;DHT22;69563;37.974;23.708;2023-05-07T05:16:02;24.60;38.10
80254;DHT22;69563;37.974;23.708;2023-05-07T05:18:28;24.60;38.00
80254;DHT22;69563;37.974;23.708;2023-05-07T05:20:53;24.70;38.00
80254;DHT22;69563;37.974;23.708;2023-05-07T05:23:19;24.70;37.90
80254;DHT22;69563;37.974;23.708;2023-05-07T05:25:45;24.80;37.80
80254;DHT22;69563;37.974;23.708;2023-05-07T05:28:11;24.80;37.80
80254;DHT22;69563;37.974;23.708;2023-05-07T05:30:36;24.80;37.60
80254;DHT22;69563;37.974;23.708;2023-05-07T05:33:02;24.90;37.60
80254;DHT22;69563;37.974;23.708;2023-05-07T05:35:29;24.90;37.50
80254;DHT22;69563;37.974;23.708;2023-05-07T05:37:55;24.90;37.50
80254;DHT22;69563;37.974;23.708;2023-05-07T05:40:20;25.00;37.50
80254;DHT22;69563;37.974;23.708;2023-05-07T05:42:46;25.00;37.60
80254;DHT22;69563;37.974;23.708;2023-05-07T05:45:12;25.00;37.50
80254;DHT22;69563;37.974;23.708;2023-05-07T05:47:37;25.10;37.60
80254;DHT22;69563;37.974;23.708;2023-05-07T05:50:05;25.10;37.50
80254;DHT22;69563;37.974;23.708;2023-05-07T05:52:31;25.10;37.40
80254;DHT22;69563;37.974;23.708;2023-05-07T05:54:57;25.10;37.30
80254;DHT22;69563;37.974;23.708;2023-05-07T05:57:23;25.10;37.20
80254;DHT22;69563;37.974;23.708;2023-05-07T05:59:49;25.20;37.30
80254;DHT22;69563;37.974;23.708;2023-05-07T06:02:15;25.20;37.20
80254;DHT22;69563;37.974;23.708;2023-05-07T06:04:42;25.20;37.20
80254;DHT22;69563;37.974;23.708;2023-05-07T06:07:08;25.20;37.20
80254;DHT22;69563;37.974;23.708;2023-05-07T06:09:34;25.20;37.20
80254;DHT22;69563;37.974;23.708;2023-05-07T06:12:00;25.30;37.20
80254;DHT22;69563;37.974;23.708;2023-05-07T06:14:25;25.30;37.20
80254;DHT22;69563;37.974;23.708;2023-05-07T06:16:52;25.30;37.20
80254;DHT22;69563;37.974;23.708;2023-05-07T06:19:17;25.30;37.10
80254;DHT22;69563;37.974;23.708;2023-05-07T06:21:48;25.30;37.10
80254;DHT22;69563;37.974;23.708;2023-05-07T06:24:14;25.30;37.10
80254;DHT22;69563;37.974;23.708;2023-05-07T06:26:40;25.40;37.20
80254;DHT22;69563;37.974;23.708;2023-05-07T06:29:06;25.30;37.10
80254;DHT22;69563;37.974;23.708;2023-05-07T06:31:32;25.30;37.00
80254;DHT22;69563;37.974;23.708;2023-05-07T06:33:57;25.30;37.00
80254;DHT22;69563;37.974;23.708;2023-05-07T06:36:24;25.40;37.00
80254;DHT22;69563;37.974;23.708;2023-05-07T06:38:50;25.40;36.90
80254;DHT22;69563;37.974;23.708;2023-05-07T06:41:16;25.40;36.90
80254;DHT22;69563;37.974;23.708;2023-05-07T06:43:42;25.40;36.80
80254;DHT22;69563;37.974;23.708;2023-05-07T06:46:07;25.40;37.80
80254;DHT22;69563;37.974;23.708;2023-05-07T06:48:33;25.40;36.80
80254;DHT22;69563;37.974;23.708;2023-05-07T06:50:59;25.40;36.70
80254;DHT22;69563;37.974;23.708;2023-05-07T06:53:25;25.40;36.70
80254;DHT22;69563;37.974;23.708;2023-05-07T06:55:51;25.40;36.70
80254;DHT22;69563;37.974;23.708;2023-05-07T06:58:17;25.40;36.60
80254;DHT22;69563;37.974;23.708;2023-05-07T07:00:43;25.40;36.60
80254;DHT22;69563;37.974;23.708;2023-05-07T07:03:09;25.40;36.60
80254;DHT22;69563;37.974;23.708;2023-05-07T07:05:35;25.40;36.60
80254;DHT22;69563;37.974;23.708;2023-05-07T07:08:01;25.40;36.60
80254;DHT22;69563;37.974;23.708;2023-05-07T07:10:27;25.40;36.60
80254;DHT22;69563;37.974;23.708;2023-05-07T07:12:52;25.40;36.60
80254;DHT22;69563;37.974;23.708;2023-05-07T07:15:20;25.40;36.50
80254;DHT22;69563;37.974;23.708;2023-05-07T07:17:50;25.30;36.50
80254;DHT22;69563;37.974;23.708;2023-05-07T07:20:16;25.30;36.50
80254;DHT22;69563;37.974;23.708;2023-05-07T07:22:42;25.30;36.50
80254;DHT22;69563;37.974;23.708;2023-05-07T07:25:08;25.30;36.50
80254;DHT22;69563;37.974;23.708;2023-05-07T07:27:35;25.30;36.40
80254;DHT22;69563;37.974;23.708;2023-05-07T07:30:01;25.20;36.40
80254;DHT22;69563;37.974;23.708;2023-05-07T07:32:27;25.30;36.40
80254;DHT22;69563;37.974;23.708;2023-05-07T07:34:52;25.20;36.40
80254;DHT22;69563;37.974;23.708;2023-05-07T07:37:18;25.20;36.30
80254;DHT22;69563;37.974;23.708;2023-05-07T07:39:44;25.20;36.30
80254;DHT22;69563;37.974;23.708;2023-05-07T07:42:10;25.20;36.30
80254;DHT22;69563;37.974;23.708;2023-05-07T07:44:36;25.20;36.30
80254;DHT22;69563;37.974;23.708;2023-05-07T07:47:01;25.20;36.30
80254;DHT22;69563;37.974;23.708;2023-05-07T07:49:27;25.20;36.30
80254;DHT22;69563;37.974;23.708;2023-05-07T07:51:53;25.20;36.20
80254;DHT22;69563;37.974;23.708;2023-05-07T07:54:19;25.10;36.20
80254;DHT22;69563;37.974;23.708;2023-05-07T07:56:44;25.10;36.10
80254;DHT22;69563;37.974;23.708;2023-05-07T07:59:10;25.10;36.20
80254;DHT22;69563;37.974;23.708;2023-05-07T08:01:36;25.10;36.20
80254;DHT22;69563;37.974;23.708;2023-05-07T08:04:01;25.10;36.20
80254;DHT22;69563;37.974;23.708;2023-05-07T08:06:29;25.10;36.20
80254;DHT22;69563;37.974;23.708;2023-05-07T08:08:54;25.10;36.20
80254;DHT22;69563;37.974;23.708;2023-05-07T08:11:21;25.10;36.20
80254;DHT22;69563;37.974;23.708;2023-05-07T08:13:48;25.10;36.20
80254;DHT22;69563;37.974;23.708;2023-05-07T08:16:14;25.10;36.20
80254;DHT22;69563;37.974;23.708;2023-05-07T08:18:39;25.10;36.20
80254;DHT22;69563;37.974;23.708;2023-05-07T08:21:05;25.10;36.20
80254;DHT22;69563;37.974;23.708;2023-05-07T08:23:31;25.00;36.10
80254;DHT22;69563;37.974;23.708;2023-05-07T08:25:57;25.00;36.10
80254;DHT22;69563;37.974;23.708;2023-05-07T08:28:23;25.00;36.10
80254;DHT22;69563;37.974;23.708;2023-05-07T08:30:50;25.00;36.10
80254;DHT22;69563;37.974;23.708;2023-05-07T08:33:16;25.00;36.10
80254;DHT22;69563;37.974;23.708;2023-05-07T08:35:42;25.00;36.20
80254;DHT22;69563;37.974;23.708;2023-05-07T08:38:07;25.00;36.10
80254;DHT22;69563;37.974;23.708;2023-05-07T08:40:37;25.00;36.20
80254;DHT22;69563;37.974;23.708;2023-05-07T08:43:06;25.00;36.20
80254;DHT22;69563;37.974;23.708;2023-05-07T08:45:33;25.00;36.20
80254;DHT22;69563;37.974;23.708;2023-05-07T08:48:02;24.90;36.10
80254;DHT22;69563;37.974;23.708;2023-05-07T08:50:30;24.90;36.20
80254;DHT22;69563;37.974;23.708;2023-05-07T08:52:56;24.90;36.20
80254;DHT22;69563;37.974;23.708;2023-05-07T08:55:24;24.90;36.20
80254;DHT22;69563;37.974;23.708;2023-05-07T08:57:50;24.80;36.10
80254;DHT22;69563;37.974;23.708;2023-05-07T09:00:18;24.90;37.20
80254;DHT22;69563;37.974;23.708;2023-05-07T09:02:43;24.90;36.30
80254;DHT22;69563;37.974;23.708;2023-05-07T09:05:09;24.80;36.20
80254;DHT22;69563;37.974;23.708;2023-05-07T09:07:36;24.80;36.30
80254;DHT22;69563;37.974;23.708;2023-05-07T09:10:03;24.80;36.20
80254;DHT22;69563;37.974;23.708;2023-05-07T09:12:29;24.80;36.30
80254;DHT22;69563;37.974;23.708;2023-05-07T09:14:55;24.80;36.40
80254;DHT22;69563;37.974;23.708;2023-05-07T09:17:21;24.80;36.30
80254;DHT22;69563;37.974;23.708;2023-05-07T09:19:47;24.80;36.40
80254;DHT22;69563;37.974;23.708;2023-05-07T09:22:13;24.80;36.40
80254;DHT22;69563;37.974;23.708;2023-05-07T09:24:39;24.80;36.40
80254;DHT22;69563;37.974;23.708;2023-05-07T09:27:06;24.80;36.50
80254;DHT22;69563;37.974;23.708;2023-05-07T09:29:32;24.80;36.50
80254;DHT22;69563;37.974;23.708;2023-05-07T09:32:01;24.80;36.50
80254;DHT22;69563;37.974;23.708;2023-05-07T09:34:29;24.80;36.50
80254;DHT22;69563;37.974;23.708;2023-05-07T09:36:55;24.80;36.50
80254;DHT22;69563;37.974;23.708;2023-05-07T09:39:23;24.80;36.50
80254;DHT22;69563;37.974;23.708;2023-05-07T09:41:49;24.80;36.50
80254;DHT22;69563;37.974;23.708;2023-05-07T09:44:15;24.80;36.50
80254;DHT22;69563;37.974;23.708;2023-05-07T09:46:43;24.80;36.50
80254;DHT22;69563;37.974;23.708;2023-05-07T09:49:20;24.70;36.40
80254;DHT22;69563;37.974;23.708;2023-05-07T09:51:51;24.80;36.50
80254;DHT22;69563;37.974;23.708;2023-05-07T09:54:18;24.80;36.40
80254;DHT22;69563;37.974;23.708;2023-05-07T09:56:44;24.70;36.40
80254;DHT22;69563;37.974;23.708;2023-05-07T09:59:13;24.70;36.30
80254;DHT22;69563;37.974;23.708;2023-05-07T10:01:41;24.80;36.40
80254;DHT22;69563;37.974;23.708;2023-05-07T10:04:07;24.70;36.40
80254;DHT22;69563;37.974;23.708;2023-05-07T10:06:34;24.70;36.30
80254;DHT22;69563;37.974;23.708;2023-05-07T10:09:02;24.80;36.30
80254;DHT22;69563;37.974;23.708;2023-05-07T10:11:29;24.70;36.30
80254;DHT22;69563;37.974;23.708;2023-05-07T10:14:13;24.70;36.20
80254;DHT22;69563;37.974;23.708;2023-05-07T10:16:40;24.70;36.30
80254;DHT22;69563;37.974;23.708;2023-05-07T10:19:08;24.70;36.30
80254;DHT22;69563;37.974;23.708;2023-05-07T10:21:42;24.70;36.20
80254;DHT22;69563;37.974;23.708;2023-05-07T10:24:25;24.80;36.30
80254;DHT22;69563;37.974;23.708;2023-05-07T10:26:53;24.80;36.20
80254;DHT22;69563;37.974;23.708;2023-05-07T10:32:45;24.80;36.20
80254;DHT22;69563;37.974;23.708;2023-05-07T10:35:26;24.70;36.20
80254;DHT22;69563;37.974;23.708;2023-05-07T10:37:55;24.70;36.20
80254;DHT22;69563;37.974;23.708;2023-05-07T10:40:21;24.70;36.20
80254;DHT22;69563;37.974;23.708;2023-05-07T10:43:03;24.70;36.20
80254;DHT22;69563;37.974;23.708;2023-05-07T10:45:33;24.80;36.20
80254;DHT22;69563;37.974;23.708;2023-05-07T10:48:17;24.80;36.20
80254;DHT22;69563;37.974;23.708;2023-05-07T10:50:43;24.80;36.10
80254;DHT22;69563;37.974;23.708;2023-05-07T10:55:49;24.80;36.10
80254;DHT22;69563;37.974;23.708;2023-05-07T11:00:47;24.80;36.00
80254;DHT22;69563;37.974;23.708;2023-05-07T11:03:13;24.80;36.00
80254;DHT22;69563;37.974;23.708;2023-05-07T11:05:41;24.80;36.10
80254;DHT22;69563;37.974;23.708;2023-05-07T11:08:08;24.80;36.00
80254;DHT22;69563;37.974;23.708;2023-05-07T11:10:54;24.80;36.00
80254;DHT22;69563;37.974;23.708;2023-05-07T11:13:42;24.80;35.90
80254;DHT22;69563;37.974;23.708;2023-05-07T11:16:19;24.80;35.90
80254;DHT22;69563;37.974;23.708;2023-05-07T11:18:49;24.80;35.90
80254;DHT22;69563;37.974;23.708;2023-05-07T11:24:05;24.80;36.00
80254;DHT22;69563;37.974;23.708;2023-05-07T11:26:42;24.80;36.00
80254;DHT22;69563;37.974;23.708;2023-05-07T11:29:13;24.80;35.90
80254;DHT22;69563;37.974;23.708;2023-05-07T11:31:39;24.80;35.90
80254;DHT22;69563;37.974;23.708;2023-05-07T11:34:05;24.80;35.90
80254;DHT22;69563;37.974;23.708;2023-05-07T11:36:33;24.70;35.90
80254;DHT22;69563;37.974;23.708;2023-05-07T11:38:58;24.70;35.90
80254;DHT22;69563;37.974;23.708;2023-05-07T11:41:37;24.70;36.00
80254;DHT22;69563;37.974;23.708;2023-05-07T11:44:04;24.70;35.90
80254;DHT22;69563;37.974;23.708;2023-05-07T11:46:30;24.70;36.00
80254;DHT22;69563;37.974;23.708;2023-05-07T11:48:56;24.70;36.10
80254;DHT22;69563;37.974;23.708;2023-05-07T11:51:24;24.70;36.10
80254;DHT22;69563;37.974;23.708;2023-05-07T11:53:53;24.70;36.10
80254;DHT22;69563;37.974;23.708;2023-05-07T11:56:19;24.70;36.00
80254;DHT22;69563;37.974;23.708;2023-05-07T11:58:46;24.70;36.00
80254;DHT22;69563;37.974;23.708;2023-05-07T12:01:13;24.70;36.00
80254;DHT22;69563;37.974;23.708;2023-05-07T12:03:41;24.60;35.90
80254;DHT22;69563;37.974;23.708;2023-05-07T12:06:09;24.70;36.00
80254;DHT22;69563;37.974;23.708;2023-05-07T12:08:39;24.70;36.00
80254;DHT22;69563;37.974;23.708;2023-05-07T12:11:14;24.60;36.00
80254;DHT22;69563;37.974;23.708;2023-05-07T12:13:42;24.60;36.00
80254;DHT22;69563;37.974;23.708;2023-05-07T12:16:07;24.60;36.00
80254;DHT22;69563;37.974;23.708;2023-05-07T12:18:37;24.60;36.10
80254;DHT22;69563;37.974;23.708;2023-05-07T12:21:04;24.60;36.10
80254;DHT22;69563;37.974;23.708;2023-05-07T12:23:30;24.60;36.10
80254;DHT22;69563;37.974;23.708;2023-05-07T12:25:57;24.60;36.00
80254;DHT22;69563;37.974;23.708;2023-05-07T12:28:22;24.60;36.10
80254;DHT22;69563;37.974;23.708;2023-05-07T12:30:50;24.60;36.10
80254;DHT22;69563;37.974;23.708;2023-05-07T12:33:24;24.60;36.10
80254;DHT22;69563;37.974;23.708;2023-05-07T12:35:50;24.60;36.10
80254;DHT22;69563;37.974;23.708;2023-05-07T12:38:18;24.60;36.10
80254;DHT22;69563;37.974;23.708;2023-05-07T12:40:49;24.60;36.10
80254;DHT22;69563;37.974;23.708;2023-05-07T12:43:35;24.60;36.10
80254;DHT22;69563;37.974;23.708;2023-05-07T12:46:03;24.60;36.10
80254;DHT22;69563;37.974;23.708;2023-05-07T12:48:29;24.50;36.20
80254;DHT22;69563;37.974;23.708;2023-05-07T12:50:56;24.60;36.20
80254;DHT22;69563;37.974;23.708;2023-05-07T12:53:23;24.50;36.10
80254;DHT22;69563;37.974;23.708;2023-05-07T12:55:51;24.50;36.10
80254;DHT22;69563;37.974;23.708;2023-05-07T12:58:27;24.50;36.10
80254;DHT22;69563;37.974;23.708;2023-05-07T13:00:54;24.50;36.10
80254;DHT22;69563;37.974;23.708;2023-05-07T13:03:35;24.50;36.10
80254;DHT22;69563;37.974;23.708;2023-05-07T13:06:06;24.50;36.00
80254;DHT22;69563;37.974;23.708;2023-05-07T13:08:41;24.50;36.00
80254;DHT22;69563;37.974;23.708;2023-05-07T13:11:14;24.50;36.00
80254;DHT22;69563;37.974;23.708;2023-05-07T13:13:41;24.50;36.10
80254;DHT22;69563;37.974;23.708;2023-05-07T13:16:09;24.50;36.10
80254;DHT22;69563;37.974;23.708;2023-05-07T13:18:36;24.50;36.10
80254;DHT22;69563;37.974;23.708;2023-05-07T13:21:02;24.50;36.00
80254;DHT22;69563;37.974;23.708;2023-05-07T13:23:28;24.50;35.90
80254;DHT22;69563;37.974;23.708;2023-05-07T13:25:54;24.50;36.00
80254;DHT22;69563;37.974;23.708;2023-05-07T13:28:21;24.50;36.00
80254;DHT22;69563;37.974;23.708;2023-05-07T13:30:47;24.50;36.00
80254;DHT22;69563;37.974;23.708;2023-05-07T13:33:13;24.50;36.10
80254;DHT22;69563;37.974;23.708;2023-05-07T13:35:39;24.50;36.00
80254;DHT22;69563;37.974;23.708;2023-05-07T13:38:05;24.50;36.00
80254;DHT22;69563;37.974;23.708;2023-05-07T13:40:31;24.50;35.90
80254;DHT22;69563;37.974;23.708;2023-05-07T13:42:58;24.50;36.00
80254;DHT22;69563;37.974;23.708;2023-05-07T13:45:25;24.50;35.90
80254;DHT22;69563;37.974;23.708;2023-05-07T13:47:51;24.50;36.00
80254;DHT22;69563;37.974;23.708;2023-05-07T13:50:17;24.50;35.90
80254;DHT22;69563;37.974;23.708;2023-05-07T13:52:44;24.50;35.90
80254;DHT22;69563;37.974;23.708;2023-05-07T13:55:19;24.50;35.90
80254;DHT22;69563;37.974;23.708;2023-05-07T13:57:47;24.50;35.90
80254;DHT22;69563;37.974;23.708;2023-05-07T14:00:13;24.50;35.90
80254;DHT22;69563;37.974;23.708;2023-05-07T14:02:40;24.50;35.90
80254;DHT22;69563;37.974;23.708;2023-05-07T14:05:06;24.50;35.90
80254;DHT22;69563;37.974;23.708;2023-05-07T14:07:33;24.50;35.90
80254;DHT22;69563;37.974;23.708;2023-05-07T14:10:01;24.50;35.90
80254;DHT22;69563;37.974;23.708;2023-05-07T14:12:28;24.50;35.90
80254;DHT22;69563;37.974;23.708;2023-05-07T14:14:53;24.40;35.80
80254;DHT22;69563;37.974;23.708;2023-05-07T14:17:19;24.50;35.90
80254;DHT22;69563;37.974;23.708;2023-05-07T14:19:45;24.40;35.80
80254;DHT22;69563;37.974;23.708;2023-05-07T14:22:13;24.50;35.90
80254;DHT22;69563;37.974;23.708;2023-05-07T14:24:39;24.50;35.90
80254;DHT22;69563;37.974;23.708;2023-05-07T14:27:05;24.50;35.80
80254;DHT22;69563;37.974;23.708;2023-05-07T14:29:31;24.50;35.90
80254;DHT22;69563;37.974;23.708;2023-05-07T14:31:57;24.50;35.80
80254;DHT22;69563;37.974;23.708;2023-05-07T14:34:23;24.50;35.80
80254;DHT22;69563;37.974;23.708;2023-05-07T14:36:48;24.40;35.80
80254;DHT22;69563;37.974;23.708;2023-05-07T14:39:14;24.40;35.70
80254;DHT22;69563;37.974;23.708;2023-05-07T14:41:40;24.50;35.80
80254;DHT22;69563;37.974;23.708;2023-05-07T14:44:06;24.40;35.80
80254;DHT22;69563;37.974;23.708;2023-05-07T14:46:31;24.40;35.80
80254;DHT22;69563;37.974;23.708;2023-05-07T14:48:57;24.40;35.70
80254;DHT22;69563;37.974;23.708;2023-05-07T14:51:23;24.40;35.70
80254;DHT22;69563;37.974;23.708;2023-05-07T14:53:50;24.40;35.70
80254;DHT22;69563;37.974;23.708;2023-05-07T14:56:16;24.40;35.70
80254;DHT22;69563;37.974;23.708;2023-05-07T14:58:42;24.40;35.70
80254;DHT22;69563;37.974;23.708;2023-05-07T15:01:08;24.40;35.70
80254;DHT22;69563;37.974;23.708;2023-05-07T15:03:34;24.40;35.70
80254;DHT22;69563;37.974;23.708;2023-05-07T15:06:02;24.40;35.70
80254;DHT22;69563;37.974;23.708;2023-05-07T15:08:28;24.40;35.60
80254;DHT22;69563;37.974;23.708;2023-05-07T15:10:54;24.40;35.60
80254;DHT22;69563;37.974;23.708;2023-05-07T15:13:23;24.40;35.60
80254;DHT22;69563;37.974;23.708;2023-05-07T15:15:49;24.40;35.60
80254;DHT22;69563;37.974;23.708;2023-05-07T15:18:15;24.40;35.60
80254;DHT22;69563;37.974;23.708;2023-05-07T15:20:41;24.40;35.60
80254;DHT22;69563;37.974;23.708;2023-05-07T15:23:08;24.40;35.50
80254;DHT22;69563;37.974;23.708;2023-05-07T15:25:39;24.40;35.50
80254;DHT22;69563;37.974;23.708;2023-05-07T15:28:05;24.40;35.50